Patricia Ann — WDE2845 — position and weather

sailwx.info

Track history (hours):
 
Tides and Currents Weather Stations Pressure Air Temp Water Temp Dewpoint Dewpoint Depression Visibility Wind Speed Wind Dir Waves Ship Positions

Patricia Ann

Owner: AmNav Maritime Services, Oakland, CA. More information available from US FCC via Universal Licensing System and Coast Guard Vessel Documentation Center.

Last reported at 2014-Dec-19 04:12 UTC. Time now 2014-Dec-20 05:53 UTC.
Position N 38°04' W 122°14'.

Length 24 m; draft 4.9 m.

Type: Tug. MMSI: 367330510.

Date/timePositionNaut miles runAvg speedWind from/ knotsBaromVisibWave heightAir tempDewpointWater temp
2014-Dec-19 04:12N 38°04' W 122°14'812.1
2014-Dec-19 03:32N 38°01' W 122°23'1111.2
2014-Dec-19 02:33N 37°50' W 122°22'4 4.5
2014-Dec-19 01:33N 37°48' W 122°18'0 0.0
2014-Dec-19 00:33N 37°48' W 122°18'0 0.0
2014-Dec-18 23:33N 37°48' W 122°18'2 2.2
2014-Dec-18 22:34N 37°48' W 122°20'2 1.8
2014-Dec-18 21:33N 37°49' W 122°19'0 0.0
2014-Dec-18 20:33N 37°49' W 122°19'0 0.0
2014-Dec-18 19:33N 37°49' W 122°19'0 0.0
2014-Dec-18 18:33N 37°49' W 122°19'0 0.0
2014-Dec-18 17:33N 37°49' W 122°19'0 0.0
2014-Dec-18 16:33N 37°49' W 122°19'1 0.7
2014-Dec-18 15:34N 37°49' W 122°19'0 0.4
2014-Dec-18 14:33N 37°49' W 122°19'0 0.3
2014-Dec-18 13:33N 37°49' W 122°19'0 0.0
2014-Dec-18 12:33N 37°49' W 122°19'0 0.0
2014-Dec-18 11:34N 37°49' W 122°19'0 0.0
2014-Dec-18 10:33N 37°49' W 122°19'0 0.0
2014-Dec-18 09:33N 37°49' W 122°19'0 0.0
2014-Dec-18 08:33N 37°49' W 122°19'0 0.0
2014-Dec-18 07:33N 37°49' W 122°19'0 0.0
2014-Dec-18 06:33N 37°49' W 122°19'0 0.0
2014-Dec-18 05:33N 37°49' W 122°19'0 0.0
2014-Dec-18 04:33N 37°49' W 122°19'0 0.0
2014-Dec-18 03:33N 37°49' W 122°19'0 0.0
2014-Dec-18 02:33N 37°49' W 122°19'0 0.0
2014-Dec-18 01:33N 37°49' W 122°19'0 0.0
2014-Dec-18 00:34N 37°49' W 122°19'0 0.0
2014-Dec-17 23:33N 37°49' W 122°19'0 0.0
2014-Dec-17 22:33N 37°49' W 122°19'0 0.0
2014-Dec-17 21:33N 37°49' W 122°19'0 0.0
2014-Dec-17 20:33N 37°49' W 122°19'0 0.0
2014-Dec-17 19:33N 37°49' W 122°19'0 0.0
2014-Dec-17 18:33N 37°49' W 122°19'0 0.0
2014-Dec-17 17:33N 37°49' W 122°19'0 0.0
2014-Dec-17 16:33N 37°49' W 122°19'0 0.0
2014-Dec-17 15:33N 37°49' W 122°19'2 1.7
2014-Dec-17 14:34N 37°48' W 122°19'1 1.3
2014-Dec-17 13:33N 37°49' W 122°20'2 1.6
2014-Dec-17 12:33N 37°49' W 122°19'0 0.0
2014-Dec-17 11:33N 37°49' W 122°19'0 0.0
2014-Dec-17 10:33N 37°49' W 122°19'0 0.0
2014-Dec-17 09:33N 37°49' W 122°19'0 0.0
2014-Dec-17 08:33N 37°49' W 122°19'0 0.0
2014-Dec-17 07:33N 37°49' W 122°19'0 0.0
2014-Dec-17 06:33N 37°49' W 122°19'0 0.0
2014-Dec-17 05:33N 37°49' W 122°19'0 0.0
2014-Dec-17 04:33N 37°49' W 122°19'0 0.0
2014-Dec-17 03:33N 37°49' W 122°19'0 0.2
2014-Dec-17 02:34N 37°49' W 122°19'0 0.0
2014-Dec-17 01:33N 37°49' W 122°19'1 0.7
2014-Dec-17 00:33N 37°49' W 122°20'1 0.8
2014-Dec-16 23:33N 37°49' W 122°19'0 0.0
2014-Dec-16 22:33N 37°49' W 122°19'0 0.0
2014-Dec-16 21:33N 37°49' W 122°19'0 0.0
2014-Dec-16 20:33N 37°49' W 122°19'0 0.0
2014-Dec-16 19:33N 37°49' W 122°19'0 0.0
2014-Dec-16 18:33N 37°49' W 122°19'1 0.6
2014-Dec-16 17:33N 37°49' W 122°19'2 1.7
2014-Dec-16 16:33N 37°48' W 122°21'1 0.7
2014-Dec-16 15:33N 37°48' W 122°22'2 2.3
2014-Dec-16 14:33N 37°49' W 122°19'1 0.8
2014-Dec-16 13:33N 37°49' W 122°19'0 0.0
2014-Dec-16 12:34N 37°49' W 122°19'0 0.0
2014-Dec-16 11:33N 37°49' W 122°19'0 0.0
2014-Dec-16 10:33N 37°49' W 122°19'0 0.0
2014-Dec-16 09:33N 37°49' W 122°19'0 0.0
2014-Dec-16 08:33N 37°49' W 122°19'0 0.0
2014-Dec-16 07:33N 37°49' W 122°19'0 0.0
2014-Dec-16 06:33N 37°49' W 122°19'0 0.0
2014-Dec-16 05:33N 37°49' W 122°19'0 0.0
2014-Dec-16 04:33N 37°49' W 122°19'4 4.2
2014-Dec-16 03:32N 37°51' W 122°24'4 4.4
2014-Dec-16 02:33N 37°55' W 122°25'5 5.5
2014-Dec-16 01:33N 37°50' W 122°22'3 3.1
2014-Dec-16 00:33N 37°49' W 122°19'0 0.0
2014-Dec-15 23:33N 37°49' W 122°19'0 0.0
2014-Dec-15 22:33N 37°49' W 122°19'0 0.0
2014-Dec-15 21:33N 37°49' W 122°19'0 0.0
2014-Dec-15 20:33N 37°49' W 122°19'2 2.0
2014-Dec-15 19:33N 37°48' W 122°18'3 2.9
2014-Dec-15 18:33N 37°48' W 122°21'2 2.1
2014-Dec-15 17:33N 37°49' W 122°19'0 0.0
2014-Dec-15 16:33N 37°49' W 122°19'0 0.0
2014-Dec-15 15:33N 37°49' W 122°19'0 0.4
2014-Dec-15 14:33N 37°49' W 122°19'3 2.5
2014-Dec-15 13:33N 37°48' W 122°22'3 2.8
2014-Dec-15 12:33N 37°49' W 122°19'0 0.0
2014-Dec-15 11:33N 37°49' W 122°19'0 0.0
2014-Dec-15 10:33N 37°49' W 122°19'0 0.0
2014-Dec-15 09:33N 37°49' W 122°19'0 0.0
2014-Dec-15 08:33N 37°49' W 122°19'0 0.0
2014-Dec-15 07:33N 37°49' W 122°19'0 0.0
2014-Dec-15 06:33N 37°49' W 122°19'0 0.0
2014-Dec-15 05:33N 37°49' W 122°19'0 0.0
2014-Dec-15 04:33N 37°49' W 122°19'0 0.0
2014-Dec-15 03:33N 37°49' W 122°19'0 0.0
2014-Dec-15 02:33N 37°49' W 122°19'1 1.0
2014-Dec-15 01:33N 37°49' W 122°20'1 0.9
2014-Dec-15 00:33N 37°48' W 122°21'1 1.3
2014-Dec-14 23:34N 37°49' W 122°19'1 0.6
2014-Dec-14 22:33N 37°49' W 122°19'0 0.0
2014-Dec-14 21:33N 37°49' W 122°19'0 0.0
2014-Dec-14 20:33N 37°49' W 122°19'0 0.0
2014-Dec-14 19:33N 37°49' W 122°19'1 0.8
2014-Dec-14 18:33N 37°49' W 122°19'2 1.7
2014-Dec-14 17:33N 37°48' W 122°18'1 1.2
2014-Dec-14 16:33N 37°48' W 122°20'0 0.0
2014-Dec-14 15:33N 37°48' W 122°20'0 0.4
2014-Dec-14 14:33N 37°48' W 122°19'1 0.5
2014-Dec-14 13:33N 37°48' W 122°18'1 0.9
2014-Dec-14 12:33N 37°48' W 122°17'0 0.0
2014-Dec-14 11:33N 37°48' W 122°17'2 2.1
2014-Dec-14 10:33N 37°48' W 122°20'2 1.7
2014-Dec-14 09:33N 37°49' W 122°19'0 0.0
2014-Dec-14 08:33N 37°49' W 122°19'0 0.0
2014-Dec-14 07:33N 37°49' W 122°19'0 0.0
2014-Dec-14 06:33N 37°49' W 122°19'0 0.0
2014-Dec-14 05:33N 37°49' W 122°19'0 0.0
2014-Dec-14 04:33N 37°49' W 122°19'0 0.0
2014-Dec-14 03:33N 37°49' W 122°19'0 0.0
2014-Dec-14 02:33N 37°49' W 122°19'1 0.6
2014-Dec-14 01:33N 37°49' W 122°19'0 0.5
2014-Dec-14 00:33N 37°49' W 122°20'0 0.5
2014-Dec-13 23:33N 37°49' W 122°19'1 0.7
2014-Dec-13 22:33N 37°49' W 122°19'0 0.0
2014-Dec-13 21:33N 37°49' W 122°19'0 0.0
2014-Dec-13 20:33N 37°49' W 122°19'2 1.5
2014-Dec-13 19:33N 37°48' W 122°19'2 1.6
2014-Dec-13 18:33N 37°48' W 122°17'4 3.7
2014-Dec-13 17:33N 37°48' W 122°22'1 1.4
2014-Dec-13 16:33N 37°49' W 122°20'0 0.0
2014-Dec-13 15:33N 37°49' W 122°20'0 0.0
2014-Dec-13 14:33N 37°49' W 122°20'4 3.6
2014-Dec-13 13:33N 37°46' W 122°23'3 3.0
2014-Dec-13 12:33N 37°48' W 122°21'2 1.9
2014-Dec-13 11:33N 37°49' W 122°19'0 0.0
2014-Dec-13 10:33N 37°49' W 122°19'0 0.0
2014-Dec-13 09:33N 37°49' W 122°19'0 0.0
2014-Dec-13 08:33N 37°49' W 122°19'0 0.0
2014-Dec-13 07:33N 37°49' W 122°19'0 0.0
2014-Dec-13 06:33N 37°49' W 122°19'0 0.0
2014-Dec-13 05:33N 37°49' W 122°19'0 0.0
2014-Dec-13 04:33N 37°49' W 122°19'1 0.7
2014-Dec-13 03:33N 37°49' W 122°19'1 0.5
2014-Dec-13 02:34N 37°49' W 122°19'0 0.2
2014-Dec-13 01:33N 37°49' W 122°19'2 1.7
2014-Dec-13 00:33N 37°48' W 122°21'3 3.2
2014-Dec-12 23:33N 37°46' W 122°23'0 0.0
2014-Dec-12 22:33N 37°46' W 122°23'0 0.0
2014-Dec-12 21:33N 37°46' W 122°23'3 3.3
2014-Dec-12 20:33N 37°49' W 122°20'2 1.6
2014-Dec-12 19:33N 37°49' W 122°19'0 0.0
2014-Dec-12 18:33N 37°49' W 122°19'2 1.6
2014-Dec-12 17:33N 37°48' W 122°19'0 0.2
2014-Dec-12 16:33N 37°48' W 122°19'0 0.3
2014-Dec-12 15:33N 37°48' W 122°19'2 1.6
2014-Dec-12 14:33N 37°49' W 122°19'0 0.0
2014-Dec-12 13:33N 37°49' W 122°19'0 0.0
2014-Dec-12 12:33N 37°49' W 122°19'0 0.0
2014-Dec-12 11:33N 37°49' W 122°19'0 0.0
2014-Dec-12 10:34N 37°49' W 122°19'0 0.0
2014-Dec-12 09:33N 37°49' W 122°19'0 0.0
2014-Dec-12 08:33N 37°49' W 122°19'0 0.0
2014-Dec-12 07:33N 37°49' W 122°19'0 0.0
2014-Dec-12 06:33N 37°49' W 122°19'0 0.0
2014-Dec-12 05:33N 37°49' W 122°19'0 0.0
2014-Dec-12 04:33N 37°49' W 122°19'0 0.0
2014-Dec-12 03:33N 37°49' W 122°19'0 0.0
2014-Dec-12 02:33N 37°49' W 122°19'0 0.0
2014-Dec-12 01:33N 37°49' W 122°19'5 4.9
2014-Dec-12 00:33N 37°46' W 122°23'0 0.0
2014-Dec-11 23:33N 37°46' W 122°23'0 0.2
2014-Dec-11 22:33N 37°46' W 122°23'0 0.0
2014-Dec-11 21:33N 37°46' W 122°23'0 0.0
2014-Dec-11 20:33N 37°46' W 122°23'0 0.2
2014-Dec-11 19:33N 37°46' W 122°23'0 0.0
2014-Dec-11 18:33N 37°46' W 122°23'0 0.0
2014-Dec-11 17:34N 37°46' W 122°23'0 0.0
2014-Dec-11 16:34N 37°46' W 122°23'0 0.0
2014-Dec-11 15:33N 37°46' W 122°23'0 0.0
2014-Dec-11 14:33N 37°46' W 122°23'0 0.0
2014-Dec-11 13:33N 37°46' W 122°23'0 0.0
2014-Dec-11 12:33N 37°46' W 122°23'0 0.1
2014-Dec-11 11:33N 37°46' W 122°23'0 0.0
2014-Dec-11 10:33N 37°46' W 122°23'0 0.0
2014-Dec-11 09:33N 37°46' W 122°23'0 0.0
2014-Dec-11 08:33N 37°46' W 122°23'0 0.0
2014-Dec-11 07:33N 37°46' W 122°23'0 0.0
2014-Dec-11 06:33N 37°46' W 122°23'0 0.0
2014-Dec-11 05:33N 37°46' W 122°23'0 0.0
2014-Dec-11 04:33N 37°46' W 122°23'0 0.0
2014-Dec-11 03:33N 37°46' W 122°23'0 0.0
2014-Dec-11 02:33N 37°46' W 122°23'0 0.0
2014-Dec-11 01:33N 37°46' W 122°23'5 4.8
2014-Dec-11 00:33N 37°49' W 122°19'0 0.0
2014-Dec-10 23:33N 37°49' W 122°19'0 0.0
2014-Dec-10 22:33N 37°49' W 122°19'0 0.0
2014-Dec-10 21:33N 37°49' W 122°19'0 0.0
2014-Dec-10 20:33N 37°49' W 122°19'0 0.0
2014-Dec-10 19:33N 37°49' W 122°19'0 0.0
2014-Dec-10 18:33N 37°49' W 122°19'0 0.0
2014-Dec-10 17:33N 37°49' W 122°19'1 0.8
2014-Dec-10 16:33N 37°49' W 122°19'0 0.1
2014-Dec-10 15:33N 37°49' W 122°19'2 2.1
2014-Dec-10 14:33N 37°48' W 122°22'3 2.9
2014-Dec-10 13:33N 37°49' W 122°19'0 0.0
2014-Dec-10 12:33N 37°49' W 122°19'0 0.0
2014-Dec-10 11:33N 37°49' W 122°19'0 0.0
2014-Dec-10 10:33N 37°49' W 122°19'0 0.0
2014-Dec-10 09:33N 37°49' W 122°19'0 0.0
2014-Dec-10 08:33N 37°49' W 122°19'0 0.0
2014-Dec-10 07:33N 37°49' W 122°19'0 0.0
2014-Dec-10 06:33N 37°49' W 122°19'0 0.0
2014-Dec-10 05:33N 37°49' W 122°19'0 0.0
2014-Dec-10 04:33N 37°49' W 122°19'0 0.0
2014-Dec-10 03:33N 37°49' W 122°19'1 0.5
2014-Dec-10 02:34N 37°49' W 122°19'2 2.5
2014-Dec-10 01:33N 37°48' W 122°22'1 1.5
2014-Dec-10 00:33N 37°47' W 122°22'1 1.0
2014-Dec-09 23:33N 37°46' W 122°23'0 0.1
2014-Dec-09 22:33N 37°46' W 122°23'0 0.2
2014-Dec-09 21:34N 37°46' W 122°23'3 2.5
2014-Dec-09 20:33N 37°49' W 122°24'1 0.5
2014-Dec-09 19:33N 37°48' W 122°24'3 2.8
2014-Dec-09 18:33N 37°48' W 122°21'0 0.4
2014-Dec-09 17:33N 37°49' W 122°20'0 0.0
2014-Dec-09 16:33N 37°49' W 122°20'0 0.0
2014-Dec-09 15:33N 37°49' W 122°20'1 1.4
2014-Dec-09 14:33N 37°48' W 122°22'2 2.2
2014-Dec-09 13:33N 37°49' W 122°24'3 2.6
2014-Dec-09 12:33N 37°48' W 122°21'2 2.2
2014-Dec-09 11:34N 37°49' W 122°19'0 0.0
2014-Dec-09 10:33N 37°49' W 122°19'1 0.8
2014-Dec-09 09:33N 37°49' W 122°20'8 8.0
2014-Dec-09 08:33N 37°48' W 122°30'5 5.2
2014-Dec-09 07:33N 37°52' W 122°25'4 3.6
2014-Dec-09 06:33N 37°55' W 122°25'0 0.3
2014-Dec-09 05:33N 37°56' W 122°25'0 0.1
2014-Dec-09 04:33N 37°56' W 122°25'  
Track history (hours):
 
Tides and Currents Weather Stations Pressure Air Temp Water Temp Dewpoint Dewpoint Depression Visibility Wind Speed Wind Dir Waves Ship Positions

Patricia Ann

Owner: AmNav Maritime Services, Oakland, CA. More information available from US FCC via Universal Licensing System and Coast Guard Vessel Documentation Center.

Last reported at 2014-Dec-19 04:12 UTC. Time now 2014-Dec-20 05:53 UTC.
Position N 38°04' W 122°14'.

Length 24 m; draft 4.9 m.

Type: Tug. MMSI: 367330510.

Date/timePositionNaut miles runAvg speedWind from/ knotsBaromVisibWave heightAir tempDewpointWater temp
2014-Dec-19 04:12N 38°04' W 122°14'812.1
2014-Dec-19 03:32N 38°01' W 122°23'1111.2
2014-Dec-19 02:33N 37°50' W 122°22'4 4.5
2014-Dec-19 01:33N 37°48' W 122°18'0 0.0
2014-Dec-19 00:33N 37°48' W 122°18'0 0.0
2014-Dec-18 23:33N 37°48' W 122°18'2 2.2
2014-Dec-18 22:34N 37°48' W 122°20'2 1.8
2014-Dec-18 21:33N 37°49' W 122°19'0 0.0
2014-Dec-18 20:33N 37°49' W 122°19'0 0.0
2014-Dec-18 19:33N 37°49' W 122°19'0 0.0
2014-Dec-18 18:33N 37°49' W 122°19'0 0.0
2014-Dec-18 17:33N 37°49' W 122°19'0 0.0
2014-Dec-18 16:33N 37°49' W 122°19'1 0.7
2014-Dec-18 15:34N 37°49' W 122°19'0 0.4
2014-Dec-18 14:33N 37°49' W 122°19'0 0.3
2014-Dec-18 13:33N 37°49' W 122°19'0 0.0
2014-Dec-18 12:33N 37°49' W 122°19'0 0.0
2014-Dec-18 11:34N 37°49' W 122°19'0 0.0
2014-Dec-18 10:33N 37°49' W 122°19'0 0.0
2014-Dec-18 09:33N 37°49' W 122°19'0 0.0
2014-Dec-18 08:33N 37°49' W 122°19'0 0.0
2014-Dec-18 07:33N 37°49' W 122°19'0 0.0
2014-Dec-18 06:33N 37°49' W 122°19'0 0.0
2014-Dec-18 05:33N 37°49' W 122°19'0 0.0
2014-Dec-18 04:33N 37°49' W 122°19'0 0.0
2014-Dec-18 03:33N 37°49' W 122°19'0 0.0
2014-Dec-18 02:33N 37°49' W 122°19'0 0.0
2014-Dec-18 01:33N 37°49' W 122°19'0 0.0
2014-Dec-18 00:34N 37°49' W 122°19'0 0.0
2014-Dec-17 23:33N 37°49' W 122°19'0 0.0
2014-Dec-17 22:33N 37°49' W 122°19'0 0.0
2014-Dec-17 21:33N 37°49' W 122°19'0 0.0
2014-Dec-17 20:33N 37°49' W 122°19'0 0.0
2014-Dec-17 19:33N 37°49' W 122°19'0 0.0
2014-Dec-17 18:33N 37°49' W 122°19'0 0.0
2014-Dec-17 17:33N 37°49' W 122°19'0 0.0
2014-Dec-17 16:33N 37°49' W 122°19'0 0.0
2014-Dec-17 15:33N 37°49' W 122°19'2 1.7
2014-Dec-17 14:34N 37°48' W 122°19'1 1.3
2014-Dec-17 13:33N 37°49' W 122°20'2 1.6
2014-Dec-17 12:33N 37°49' W 122°19'0 0.0
2014-Dec-17 11:33N 37°49' W 122°19'0 0.0
2014-Dec-17 10:33N 37°49' W 122°19'0 0.0
2014-Dec-17 09:33N 37°49' W 122°19'0 0.0
2014-Dec-17 08:33N 37°49' W 122°19'0 0.0
2014-Dec-17 07:33N 37°49' W 122°19'0 0.0
2014-Dec-17 06:33N 37°49' W 122°19'0 0.0
2014-Dec-17 05:33N 37°49' W 122°19'0 0.0
2014-Dec-17 04:33N 37°49' W 122°19'0 0.0
2014-Dec-17 03:33N 37°49' W 122°19'0 0.2
2014-Dec-17 02:34N 37°49' W 122°19'0 0.0
2014-Dec-17 01:33N 37°49' W 122°19'1 0.7
2014-Dec-17 00:33N 37°49' W 122°20'1 0.8
2014-Dec-16 23:33N 37°49' W 122°19'0 0.0
2014-Dec-16 22:33N 37°49' W 122°19'0 0.0
2014-Dec-16 21:33N 37°49' W 122°19'0 0.0
2014-Dec-16 20:33N 37°49' W 122°19'0 0.0
2014-Dec-16 19:33N 37°49' W 122°19'0 0.0
2014-Dec-16 18:33N 37°49' W 122°19'1 0.6
2014-Dec-16 17:33N 37°49' W 122°19'2 1.7
2014-Dec-16 16:33N 37°48' W 122°21'1 0.7
2014-Dec-16 15:33N 37°48' W 122°22'2 2.3
2014-Dec-16 14:33N 37°49' W 122°19'1 0.8
2014-Dec-16 13:33N 37°49' W 122°19'0 0.0
2014-Dec-16 12:34N 37°49' W 122°19'0 0.0
2014-Dec-16 11:33N 37°49' W 122°19'0 0.0
2014-Dec-16 10:33N 37°49' W 122°19'0 0.0
2014-Dec-16 09:33N 37°49' W 122°19'0 0.0
2014-Dec-16 08:33N 37°49' W 122°19'0 0.0
2014-Dec-16 07:33N 37°49' W 122°19'0 0.0
2014-Dec-16 06:33N 37°49' W 122°19'0 0.0
2014-Dec-16 05:33N 37°49' W 122°19'0 0.0
2014-Dec-16 04:33N 37°49' W 122°19'4 4.2
2014-Dec-16 03:32N 37°51' W 122°24'4 4.4
2014-Dec-16 02:33N 37°55' W 122°25'5 5.5
2014-Dec-16 01:33N 37°50' W 122°22'3 3.1
2014-Dec-16 00:33N 37°49' W 122°19'0 0.0
2014-Dec-15 23:33N 37°49' W 122°19'0 0.0
2014-Dec-15 22:33N 37°49' W 122°19'0 0.0
2014-Dec-15 21:33N 37°49' W 122°19'0 0.0
2014-Dec-15 20:33N 37°49' W 122°19'2 2.0
2014-Dec-15 19:33N 37°48' W 122°18'3 2.9
2014-Dec-15 18:33N 37°48' W 122°21'2 2.1
2014-Dec-15 17:33N 37°49' W 122°19'0 0.0
2014-Dec-15 16:33N 37°49' W 122°19'0 0.0
2014-Dec-15 15:33N 37°49' W 122°19'0 0.4
2014-Dec-15 14:33N 37°49' W 122°19'3 2.5
2014-Dec-15 13:33N 37°48' W 122°22'3 2.8
2014-Dec-15 12:33N 37°49' W 122°19'0 0.0
2014-Dec-15 11:33N 37°49' W 122°19'0 0.0
2014-Dec-15 10:33N 37°49' W 122°19'0 0.0
2014-Dec-15 09:33N 37°49' W 122°19'0 0.0
2014-Dec-15 08:33N 37°49' W 122°19'0 0.0
2014-Dec-15 07:33N 37°49' W 122°19'0 0.0
2014-Dec-15 06:33N 37°49' W 122°19'0 0.0
2014-Dec-15 05:33N 37°49' W 122°19'0 0.0
2014-Dec-15 04:33N 37°49' W 122°19'0 0.0
2014-Dec-15 03:33N 37°49' W 122°19'0 0.0
2014-Dec-15 02:33N 37°49' W 122°19'1 1.0
2014-Dec-15 01:33N 37°49' W 122°20'1 0.9
2014-Dec-15 00:33N 37°48' W 122°21'1 1.3
2014-Dec-14 23:34N 37°49' W 122°19'1 0.6
2014-Dec-14 22:33N 37°49' W 122°19'0 0.0
2014-Dec-14 21:33N 37°49' W 122°19'0 0.0
2014-Dec-14 20:33N 37°49' W 122°19'0 0.0
2014-Dec-14 19:33N 37°49' W 122°19'1 0.8
2014-Dec-14 18:33N 37°49' W 122°19'2 1.7
2014-Dec-14 17:33N 37°48' W 122°18'1 1.2
2014-Dec-14 16:33N 37°48' W 122°20'0 0.0
2014-Dec-14 15:33N 37°48' W 122°20'0 0.4
2014-Dec-14 14:33N 37°48' W 122°19'1 0.5
2014-Dec-14 13:33N 37°48' W 122°18'1 0.9
2014-Dec-14 12:33N 37°48' W 122°17'0 0.0
2014-Dec-14 11:33N 37°48' W 122°17'2 2.1
2014-Dec-14 10:33N 37°48' W 122°20'2 1.7
2014-Dec-14 09:33N 37°49' W 122°19'0 0.0
2014-Dec-14 08:33N 37°49' W 122°19'0 0.0
2014-Dec-14 07:33N 37°49' W 122°19'0 0.0
2014-Dec-14 06:33N 37°49' W 122°19'0 0.0
2014-Dec-14 05:33N 37°49' W 122°19'0 0.0
2014-Dec-14 04:33N 37°49' W 122°19'0 0.0
2014-Dec-14 03:33N 37°49' W 122°19'0 0.0
2014-Dec-14 02:33N 37°49' W 122°19'1 0.6
2014-Dec-14 01:33N 37°49' W 122°19'0 0.5
2014-Dec-14 00:33N 37°49' W 122°20'0 0.5
2014-Dec-13 23:33N 37°49' W 122°19'1 0.7
2014-Dec-13 22:33N 37°49' W 122°19'0 0.0
2014-Dec-13 21:33N 37°49' W 122°19'0 0.0
2014-Dec-13 20:33N 37°49' W 122°19'2 1.5
2014-Dec-13 19:33N 37°48' W 122°19'2 1.6
2014-Dec-13 18:33N 37°48' W 122°17'4 3.7
2014-Dec-13 17:33N 37°48' W 122°22'1 1.4
2014-Dec-13 16:33N 37°49' W 122°20'0 0.0
2014-Dec-13 15:33N 37°49' W 122°20'0 0.0
2014-Dec-13 14:33N 37°49' W 122°20'4 3.6
2014-Dec-13 13:33N 37°46' W 122°23'3 3.0
2014-Dec-13 12:33N 37°48' W 122°21'2 1.9
2014-Dec-13 11:33N 37°49' W 122°19'0 0.0
2014-Dec-13 10:33N 37°49' W 122°19'0 0.0
2014-Dec-13 09:33N 37°49' W 122°19'0 0.0
2014-Dec-13 08:33N 37°49' W 122°19'0 0.0
2014-Dec-13 07:33N 37°49' W 122°19'0 0.0
2014-Dec-13 06:33N 37°49' W 122°19'0 0.0
2014-Dec-13 05:33N 37°49' W 122°19'0 0.0
2014-Dec-13 04:33N 37°49' W 122°19'1 0.7
2014-Dec-13 03:33N 37°49' W 122°19'1 0.5
2014-Dec-13 02:34N 37°49' W 122°19'0 0.2
2014-Dec-13 01:33N 37°49' W 122°19'2 1.7
2014-Dec-13 00:33N 37°48' W 122°21'3 3.2
2014-Dec-12 23:33N 37°46' W 122°23'0 0.0
2014-Dec-12 22:33N 37°46' W 122°23'0 0.0
2014-Dec-12 21:33N 37°46' W 122°23'3 3.3
2014-Dec-12 20:33N 37°49' W 122°20'2 1.6
2014-Dec-12 19:33N 37°49' W 122°19'0 0.0
2014-Dec-12 18:33N 37°49' W 122°19'2 1.6
2014-Dec-12 17:33N 37°48' W 122°19'0 0.2
2014-Dec-12 16:33N 37°48' W 122°19'0 0.3
2014-Dec-12 15:33N 37°48' W 122°19'2 1.6
2014-Dec-12 14:33N 37°49' W 122°19'0 0.0
2014-Dec-12 13:33N 37°49' W 122°19'0 0.0
2014-Dec-12 12:33N 37°49' W 122°19'0 0.0
2014-Dec-12 11:33N 37°49' W 122°19'0 0.0
2014-Dec-12 10:34N 37°49' W 122°19'0 0.0
2014-Dec-12 09:33N 37°49' W 122°19'0 0.0
2014-Dec-12 08:33N 37°49' W 122°19'0 0.0
2014-Dec-12 07:33N 37°49' W 122°19'0 0.0
2014-Dec-12 06:33N 37°49' W 122°19'0 0.0
2014-Dec-12 05:33N 37°49' W 122°19'0 0.0
2014-Dec-12 04:33N 37°49' W 122°19'0 0.0
2014-Dec-12 03:33N 37°49' W 122°19'0 0.0
2014-Dec-12 02:33N 37°49' W 122°19'0 0.0
2014-Dec-12 01:33N 37°49' W 122°19'5 4.9
2014-Dec-12 00:33N 37°46' W 122°23'0 0.0
2014-Dec-11 23:33N 37°46' W 122°23'0 0.2
2014-Dec-11 22:33N 37°46' W 122°23'0 0.0
2014-Dec-11 21:33N 37°46' W 122°23'0 0.0
2014-Dec-11 20:33N 37°46' W 122°23'0 0.2
2014-Dec-11 19:33N 37°46' W 122°23'0 0.0
2014-Dec-11 18:33N 37°46' W 122°23'0 0.0
2014-Dec-11 17:34N 37°46' W 122°23'0 0.0
2014-Dec-11 16:34N 37°46' W 122°23'0 0.0
2014-Dec-11 15:33N 37°46' W 122°23'0 0.0
2014-Dec-11 14:33N 37°46' W 122°23'0 0.0
2014-Dec-11 13:33N 37°46' W 122°23'0 0.0
2014-Dec-11 12:33N 37°46' W 122°23'0 0.1
2014-Dec-11 11:33N 37°46' W 122°23'0 0.0
2014-Dec-11 10:33N 37°46' W 122°23'0 0.0
2014-Dec-11 09:33N 37°46' W 122°23'0 0.0
2014-Dec-11 08:33N 37°46' W 122°23'0 0.0
2014-Dec-11 07:33N 37°46' W 122°23'0 0.0
2014-Dec-11 06:33N 37°46' W 122°23'0 0.0
2014-Dec-11 05:33N 37°46' W 122°23'0 0.0
2014-Dec-11 04:33N 37°46' W 122°23'0 0.0
2014-Dec-11 03:33N 37°46' W 122°23'0 0.0
2014-Dec-11 02:33N 37°46' W 122°23'0 0.0
2014-Dec-11 01:33N 37°46' W 122°23'5 4.8
2014-Dec-11 00:33N 37°49' W 122°19'0 0.0
2014-Dec-10 23:33N 37°49' W 122°19'0 0.0
2014-Dec-10 22:33N 37°49' W 122°19'0 0.0
2014-Dec-10 21:33N 37°49' W 122°19'0 0.0
2014-Dec-10 20:33N 37°49' W 122°19'0 0.0
2014-Dec-10 19:33N 37°49' W 122°19'0 0.0
2014-Dec-10 18:33N 37°49' W 122°19'0 0.0
2014-Dec-10 17:33N 37°49' W 122°19'1 0.8
2014-Dec-10 16:33N 37°49' W 122°19'0 0.1
2014-Dec-10 15:33N 37°49' W 122°19'2 2.1
2014-Dec-10 14:33N 37°48' W 122°22'3 2.9
2014-Dec-10 13:33N 37°49' W 122°19'0 0.0
2014-Dec-10 12:33N 37°49' W 122°19'0 0.0
2014-Dec-10 11:33N 37°49' W 122°19'0 0.0
2014-Dec-10 10:33N 37°49' W 122°19'0 0.0
2014-Dec-10 09:33N 37°49' W 122°19'0 0.0
2014-Dec-10 08:33N 37°49' W 122°19'0 0.0
2014-Dec-10 07:33N 37°49' W 122°19'0 0.0
2014-Dec-10 06:33N 37°49' W 122°19'0 0.0
2014-Dec-10 05:33N 37°49' W 122°19'0 0.0
2014-Dec-10 04:33N 37°49' W 122°19'0 0.0
2014-Dec-10 03:33N 37°49' W 122°19'1 0.5
2014-Dec-10 02:34N 37°49' W 122°19'2 2.5
2014-Dec-10 01:33N 37°48' W 122°22'1 1.5
2014-Dec-10 00:33N 37°47' W 122°22'1 1.0
2014-Dec-09 23:33N 37°46' W 122°23'0 0.1
2014-Dec-09 22:33N 37°46' W 122°23'0 0.2
2014-Dec-09 21:34N 37°46' W 122°23'3 2.5
2014-Dec-09 20:33N 37°49' W 122°24'1 0.5
2014-Dec-09 19:33N 37°48' W 122°24'3 2.8
2014-Dec-09 18:33N 37°48' W 122°21'0 0.4
2014-Dec-09 17:33N 37°49' W 122°20'0 0.0
2014-Dec-09 16:33N 37°49' W 122°20'0 0.0
2014-Dec-09 15:33N 37°49' W 122°20'1 1.4
2014-Dec-09 14:33N 37°48' W 122°22'2 2.2
2014-Dec-09 13:33N 37°49' W 122°24'3 2.6
2014-Dec-09 12:33N 37°48' W 122°21'2 2.2
2014-Dec-09 11:34N 37°49' W 122°19'0 0.0
2014-Dec-09 10:33N 37°49' W 122°19'1 0.8
2014-Dec-09 09:33N 37°49' W 122°20'8 8.0
2014-Dec-09 08:33N 37°48' W 122°30'5 5.2
2014-Dec-09 07:33N 37°52' W 122°25'4 3.6
2014-Dec-09 06:33N 37°55' W 122°25'0 0.3
2014-Dec-09 05:33N 37°56' W 122°25'0 0.1
2014-Dec-09 04:33N 37°56' W 122°25'  

Dump ship's entire track history